createdAt,value
2024-01-20T00:00:15.101Z,102385.91
2024-01-20T00:02:43.515Z,102377.03
2024-01-20T00:05:12.084Z,102376.53
2024-01-20T00:07:38.951Z,102374.34
2024-01-20T00:10:12.211Z,102375.47
2024-01-20T00:12:41.323Z,102373.03
2024-01-20T00:15:12.197Z,102366.09
2024-01-20T00:17:40.785Z,102366.78
2024-01-20T00:20:10.866Z,102360.47
2024-01-20T00:22:38.276Z,102362.25
2024-01-20T00:25:05.923Z,102363.75
2024-01-20T00:27:32.977Z,102357.75
2024-01-20T00:30:00.672Z,102354.13
2024-01-20T00:32:28.110Z,102359.41
2024-01-20T00:35:04.533Z,102360.25
2024-01-20T00:37:35.850Z,102368.28
2024-01-20T00:40:03.645Z,102371.28
2024-01-20T00:42:30.370Z,102380.81
2024-01-20T00:44:57.036Z,102379.31
2024-01-20T00:47:23.689Z,102378.09
2024-01-20T00:49:50.695Z,102377.97
2024-01-20T00:52:17.344Z,102378.13
2024-01-20T00:54:44.048Z,102376.50
2024-01-20T00:57:10.979Z,102373.38
2024-01-20T00:59:37.661Z,102380.16
2024-01-20T01:02:04.741Z,102384.50
2024-01-20T01:04:31.390Z,102397.28
2024-01-20T01:06:58.359Z,102410.09
2024-01-20T01:09:24.995Z,102399.38
2024-01-20T01:11:51.708Z,102408.88
2024-01-20T01:14:18.714Z,102403.28
2024-01-20T01:16:45.518Z,102416.06
2024-01-20T01:19:12.398Z,102413.47
2024-01-20T01:21:39.312Z,102409.13
2024-01-20T01:24:07.120Z,102405.72
2024-01-20T01:26:34.342Z,102413.34
2024-01-20T01:29:01.178Z,102398.53
2024-01-20T01:31:27.984Z,102404.34
2024-01-20T01:33:54.824Z,102395.63
2024-01-20T01:36:21.770Z,102399.84
2024-01-20T01:38:48.413Z,102408.69
2024-01-20T01:41:15.646Z,102403.13
2024-01-20T01:43:42.381Z,102404.34
2024-01-20T01:46:09.753Z,102405.72
2024-01-20T01:48:37.005Z,102400.84
2024-01-20T01:51:05.551Z,102403.16
2024-01-20T01:53:35.695Z,102407.91
2024-01-20T01:56:03.276Z,102408.69
2024-01-20T01:58:30.498Z,102415.38
2024-01-20T02:00:57.508Z,102421.50
2024-01-20T02:03:25.066Z,102431.56
2024-01-20T02:05:52.669Z,102429.53
2024-01-20T02:08:21.452Z,102434.53
2024-01-20T02:10:48.550Z,102433.47
2024-01-20T02:13:16.514Z,102434.84
2024-01-20T02:15:43.770Z,102443.44
2024-01-20T02:18:11.075Z,102449.28
2024-01-20T02:20:38.128Z,102451.69
2024-01-20T02:23:04.849Z,102446.53
2024-01-20T02:25:31.996Z,102450.63
2024-01-20T02:27:58.608Z,102439.75
2024-01-20T02:30:25.432Z,102448.31
2024-01-20T02:32:52.291Z,102445.06
2024-01-20T02:35:22.230Z,102452.00
2024-01-20T02:37:49.108Z,102455.41
2024-01-20T02:40:15.878Z,102461.50
2024-01-20T02:42:42.566Z,102466.00
2024-01-20T02:45:09.594Z,102463.16
2024-01-20T02:47:36.651Z,102469.00
2024-01-20T02:50:03.604Z,102469.81
2024-01-20T02:52:30.642Z,102470.78
2024-01-20T02:54:57.484Z,102465.59
2024-01-20T02:57:24.117Z,102470.34
2024-01-20T02:59:50.952Z,102460.31
2024-01-20T03:02:18.149Z,102465.47
2024-01-20T03:04:45.117Z,102466.69
2024-01-20T03:07:12.060Z,102459.63
2024-01-20T03:09:38.696Z,102456.91
2024-01-20T03:12:05.934Z,102453.06
2024-01-20T03:14:32.792Z,102449.28
2024-01-20T03:16:59.406Z,102452.25
2024-01-20T03:19:26.224Z,102462.59
2024-01-20T03:21:52.857Z,102464.50
2024-01-20T03:24:20.821Z,102458.22
2024-01-20T03:26:50.944Z,102465.31
2024-01-20T03:29:18.277Z,102458.50
2024-01-20T03:31:45.044Z,102456.84
2024-01-20T03:34:12.073Z,102462.31
2024-01-20T03:36:38.986Z,102458.50
2024-01-20T03:39:06.004Z,102455.09
2024-01-20T03:41:32.804Z,102464.22
2024-01-20T03:43:59.422Z,102447.78
2024-01-20T03:46:26.319Z,102456.63
2024-01-20T03:48:53.331Z,102469.41
2024-01-20T03:51:20.205Z,102461.66
2024-01-20T03:53:46.852Z,102454.84
2024-01-20T03:56:13.564Z,102454.84
2024-01-20T03:58:40.494Z,102444.22
2024-01-20T04:01:07.138Z,102452.13
2024-01-20T04:03:33.921Z,102444.13
2024-01-20T04:06:00.866Z,102460.00
2024-01-20T04:08:27.446Z,102457.56
2024-01-20T04:10:54.311Z,102471.44
2024-01-20T04:13:21.017Z,102478.09
2024-01-20T04:15:47.743Z,102478.41
2024-01-20T04:18:14.572Z,102475.53
2024-01-20T04:20:41.357Z,102478.78
2024-01-20T04:23:07.975Z,102486.66
2024-01-20T04:25:34.634Z,102482.63
2024-01-20T04:28:01.722Z,102487.91
2024-01-20T04:30:28.379Z,102488.72
2024-01-20T04:32:55.479Z,102488.88
2024-01-20T04:35:22.447Z,102494.28
2024-01-20T04:37:49.084Z,102498.25
2024-01-20T04:40:16.153Z,102497.31
2024-01-20T04:42:42.799Z,102500.16
2024-01-20T04:45:10.164Z,102490.63
2024-01-20T04:47:37.167Z,102503.56
2024-01-20T04:50:04.012Z,102498.91
2024-01-20T04:52:31.159Z,102492.53
2024-01-20T04:54:57.782Z,102505.84
2024-01-20T04:57:24.753Z,102497.97
2024-01-20T04:59:51.514Z,102508.84
2024-01-20T05:02:18.187Z,102527.88
2024-01-20T05:04:45.128Z,102530.31
2024-01-20T05:07:11.909Z,102534.13
2024-01-20T05:09:38.851Z,102535.75
2024-01-20T05:12:05.777Z,102534.00
2024-01-20T05:14:32.651Z,102541.88
2024-01-20T05:16:59.508Z,102534.94
2024-01-20T05:19:26.323Z,102536.31
2024-01-20T05:21:53.323Z,102548.16
2024-01-20T05:24:19.922Z,102546.38
2024-01-20T05:26:46.813Z,102548.81
2024-01-20T05:29:13.649Z,102535.63
2024-01-20T05:31:40.247Z,102535.38
2024-01-20T05:34:07.157Z,102540.09
2024-01-20T05:36:34.083Z,102537.94
2024-01-20T05:39:01.061Z,102543.66
2024-01-20T05:41:27.740Z,102541.47
2024-01-20T05:43:54.408Z,102550.44
2024-01-20T05:46:21.519Z,102553.97
2024-01-20T05:48:48.537Z,102563.38
2024-01-20T05:51:15.751Z,102556.28
2024-01-20T05:53:42.433Z,102561.72
2024-01-20T05:56:09.130Z,102554.78
2024-01-20T05:58:35.741Z,102543.66
2024-01-20T06:01:02.447Z,102559.41
2024-01-20T06:03:29.227Z,102557.22
2024-01-20T06:05:56.254Z,102569.34
2024-01-20T06:08:23.412Z,102564.72
2024-01-20T06:10:50.175Z,102567.44
2024-01-20T06:13:16.869Z,102576.56
2024-01-20T06:15:43.634Z,102574.66
2024-01-20T06:20:37.012Z,102585.13
2024-01-20T06:23:03.805Z,102577.38
2024-01-20T06:25:30.454Z,102588.66
2024-01-20T06:27:57.078Z,102579.81
2024-01-20T06:30:23.889Z,102582.91
2024-01-20T06:32:50.599Z,102583.34
2024-01-20T06:35:17.495Z,102581.44
2024-01-20T06:37:44.175Z,102583.63
2024-01-20T06:40:11.357Z,102586.59
2024-01-20T06:42:38.271Z,102589.81
2024-01-20T06:45:05.325Z,102591.09
2024-01-20T06:47:32.018Z,102587.56
2024-01-20T06:49:58.640Z,102579.09
2024-01-20T06:52:30.946Z,102584.38
2024-01-20T06:54:57.862Z,102586.84
2024-01-20T06:57:24.519Z,102595.41
2024-01-20T06:59:51.408Z,102588.47
2024-01-20T07:02:18.068Z,102589.53
2024-01-20T07:04:44.958Z,102592.94
2024-01-20T07:07:12.312Z,102595.53
2024-01-20T07:09:41.321Z,102590.50
2024-01-20T07:12:10.464Z,102601.34
2024-01-20T07:14:37.475Z,102606.81
2024-01-20T07:17:06.545Z,102613.47
2024-01-20T07:19:33.698Z,102611.47
2024-01-20T07:22:00.739Z,102605.84
2024-01-20T07:24:30.439Z,102618.66
2024-01-20T07:26:57.363Z,102621.22
2024-01-20T07:29:25.035Z,102623.69
2024-01-20T07:31:52.023Z,102613.72
2024-01-20T07:34:18.927Z,102621.50
2024-01-20T07:36:45.792Z,102622.78
2024-01-20T07:39:13.110Z,102617.84
2024-01-20T07:41:39.848Z,102624.78
2024-01-20T07:44:06.675Z,102624.78
2024-01-20T07:46:33.303Z,102641.06
2024-01-20T07:49:00.089Z,102635.09
2024-01-20T07:51:26.736Z,102620.41
2024-01-20T07:53:53.620Z,102631.44
2024-01-20T07:56:20.218Z,102641.06
2024-01-20T07:58:47.160Z,102643.53
2024-01-20T08:01:13.896Z,102642.69
2024-01-20T08:03:40.966Z,102656.28
2024-01-20T08:06:08.489Z,102663.72
2024-01-20T08:08:35.550Z,102656.81
2024-01-20T08:11:02.458Z,102658.56
2024-01-20T08:13:29.300Z,102660.81
2024-01-20T08:15:55.896Z,102658.50
2024-01-20T08:18:22.611Z,102661.50
2024-01-20T08:20:49.278Z,102660.69
2024-01-20T08:23:15.961Z,102664.66
2024-01-20T08:25:42.687Z,102661.09
2024-01-20T08:28:09.299Z,102653.78
2024-01-20T08:30:36.079Z,102653.41
2024-01-20T08:33:05.072Z,102654.75
2024-01-20T08:35:32.299Z,102659.50
2024-01-20T08:37:58.914Z,102646.16
2024-01-20T08:40:25.826Z,102650.66
2024-01-20T08:42:52.504Z,102659.50
2024-01-20T08:45:19.162Z,102673.94
2024-01-20T08:47:46.114Z,102665.78
2024-01-20T08:50:12.875Z,102664.34
2024-01-20T08:52:41.126Z,102667.75
2024-01-20T08:55:08.413Z,102671.47
2024-01-20T08:57:35.456Z,102670.91
2024-01-20T09:00:02.295Z,102674.19
2024-01-20T09:02:29.162Z,102674.06
2024-01-20T09:04:56.002Z,102673.66
2024-01-20T09:07:22.929Z,102684.09
2024-01-20T09:09:49.623Z,102679.06
2024-01-20T09:12:16.277Z,102683.94
2024-01-20T09:14:43.761Z,102672.28
2024-01-20T09:17:10.482Z,102681.34
2024-01-20T09:19:37.227Z,102682.75
2024-01-20T09:22:04.011Z,102690.47
2024-01-20T09:24:30.688Z,102689.53
2024-01-20T09:26:57.364Z,102686.56
2024-01-20T09:29:24.183Z,102685.75
2024-01-20T09:31:50.814Z,102691.06
2024-01-20T09:34:17.630Z,102687.72
2024-01-20T09:36:45.036Z,102693.34
2024-01-20T09:39:13.642Z,102689.72
2024-01-20T09:41:40.674Z,102698.00
2024-01-20T09:44:08.367Z,102702.78
2024-01-20T09:46:35.602Z,102703.50
2024-01-20T09:49:02.287Z,102710.63
2024-01-20T09:51:33.037Z,102708.19
2024-01-20T09:54:00.890Z,102718.53
2024-01-20T09:56:29.102Z,102720.97
2024-01-20T09:59:00.088Z,102726.16
2024-01-20T10:01:28.274Z,102720.16
2024-01-20T10:04:01.148Z,102718.38
2024-01-20T10:06:28.282Z,102710.22
2024-01-20T10:08:59.218Z,102720.28
2024-01-20T10:11:27.088Z,102711.47
2024-01-20T10:13:54.189Z,102713.78
2024-01-20T10:16:22.154Z,102703.44
2024-01-20T10:18:50.345Z,102711.06
2024-01-20T10:21:16.990Z,102702.88
2024-01-20T10:23:43.954Z,102714.03
2024-01-20T10:26:11.038Z,102716.19
2024-01-20T10:28:37.649Z,102706.53
2024-01-20T10:31:10.771Z,102698.06
2024-01-20T10:33:38.850Z,102705.13
2024-01-20T10:36:06.540Z,102693.44
2024-01-20T10:38:39.641Z,102697.69
2024-01-20T10:41:08.945Z,102702.06
2024-01-20T10:43:41.379Z,102684.75
2024-01-20T10:46:38.052Z,102683.13
2024-01-20T10:49:09.047Z,102690.06
2024-01-20T10:51:36.351Z,102681.09
2024-01-20T10:54:07.276Z,102677.56
2024-01-20T10:56:36.892Z,102668.69
2024-01-20T10:59:14.124Z,102678.09
2024-01-20T11:01:43.841Z,102675.50
2024-01-20T11:04:11.184Z,102674.41
2024-01-20T11:06:38.482Z,102673.16
2024-01-20T11:09:05.863Z,102675.22
2024-01-20T11:11:36.939Z,102678.19
2024-01-20T11:14:04.202Z,102682.41
2024-01-20T11:16:33.420Z,102678.84
2024-01-20T11:19:10.589Z,102677.41
2024-01-20T11:21:37.527Z,102679.72
2024-01-20T11:24:06.208Z,102669.63
2024-01-20T11:26:34.736Z,102670.44
2024-01-20T11:29:09.439Z,102667.84
2024-01-20T11:31:36.367Z,102670.94
2024-01-20T11:34:07.506Z,102669.03
2024-01-20T11:36:35.354Z,102666.31
2024-01-20T11:39:04.114Z,102665.91
2024-01-20T11:41:30.995Z,102660.44
2024-01-20T11:43:57.683Z,102652.91
2024-01-20T11:46:24.700Z,102657.72
2024-01-20T11:48:53.023Z,102640.78
2024-01-20T11:51:21.288Z,102639.53
2024-01-20T11:53:47.944Z,102637.91
2024-01-20T11:56:17.136Z,102641.97
2024-01-20T11:58:44.015Z,102630.59
2024-01-20T12:01:10.807Z,102626.75
2024-01-20T12:03:37.636Z,102622.63
2024-01-20T12:06:07.034Z,102624.13
2024-01-20T12:08:34.788Z,102630.25
2024-01-20T12:11:01.454Z,102628.84
2024-01-20T12:13:34.175Z,102625.59
2024-01-20T12:16:01.183Z,102629.44
2024-01-20T12:18:28.231Z,102623.44
2024-01-20T12:20:55.055Z,102621.94
2024-01-20T12:23:21.921Z,102632.03
2024-01-20T12:25:54.415Z,102630.69
2024-01-20T12:28:22.518Z,102619.63
2024-01-20T12:30:49.824Z,102629.31
2024-01-20T12:33:16.937Z,102622.44
2024-01-20T12:35:43.618Z,102610.78
2024-01-20T12:38:10.792Z,102615.88
2024-01-20T12:40:38.111Z,102618.19
2024-01-20T12:43:04.976Z,102617.75
2024-01-20T12:45:32.236Z,102619.91
2024-01-20T12:47:59.096Z,102622.13
2024-01-20T12:50:26.324Z,102616.13
2024-01-20T12:52:52.963Z,102612.13
2024-01-20T12:55:20.028Z,102610.31
2024-01-20T12:57:46.959Z,102602.41
2024-01-20T13:00:14.239Z,102605.66
2024-01-20T13:02:41.230Z,102605.25
2024-01-20T13:05:08.254Z,102593.53
2024-01-20T13:07:35.184Z,102591.22
2024-01-20T13:10:01.837Z,102599.94
2024-01-20T13:12:28.788Z,102602.13
2024-01-20T13:14:55.713Z,102591.75
2024-01-20T13:17:22.339Z,102587.97
2024-01-20T13:19:49.690Z,102586.50
2024-01-20T13:22:16.380Z,102585.66
2024-01-20T13:24:43.396Z,102598.34
2024-01-20T13:27:10.223Z,102593.81
2024-01-20T13:29:37.087Z,102591.06
2024-01-20T13:32:04.049Z,102590.78
2024-01-20T13:34:31.050Z,102594.88
2024-01-20T13:36:57.938Z,102594.47
2024-01-20T13:39:24.571Z,102585.44
2024-01-20T13:41:52.087Z,102590.09
2024-01-20T13:44:19.102Z,102588.19
2024-01-20T13:46:45.842Z,102587.50
2024-01-20T13:49:13.674Z,102587.38
2024-01-20T13:51:40.832Z,102585.72
2024-01-20T13:54:07.838Z,102578.78
2024-01-20T13:56:34.532Z,102571.66
2024-01-20T13:59:02.519Z,102572.47
2024-01-20T14:01:29.863Z,102576.69
2024-01-20T14:03:56.882Z,102577.19
2024-01-20T14:06:23.662Z,102572.31
2024-01-20T14:08:52.382Z,102566.97
2024-01-20T14:11:19.071Z,102562.75
2024-01-20T14:13:45.931Z,102572.00
2024-01-20T14:16:12.610Z,102573.44
2024-01-20T14:18:39.429Z,102570.84
2024-01-20T14:21:06.437Z,102570.16
2024-01-20T14:23:33.055Z,102573.06
2024-01-20T14:25:59.917Z,102571.81
2024-01-20T14:28:26.641Z,102569.66
2024-01-20T14:30:53.607Z,102573.22
2024-01-20T14:33:20.512Z,102566.41
2024-01-20T14:35:47.504Z,102572.63
2024-01-20T14:38:15.214Z,102575.38
2024-01-20T14:40:42.252Z,102578.09
2024-01-20T14:43:09.118Z,102577.00
2024-01-20T14:45:35.879Z,102571.94
2024-01-20T14:48:02.949Z,102573.72
2024-01-20T14:50:29.699Z,102575.81
2024-01-20T14:52:56.563Z,102569.81
2024-01-20T14:55:23.155Z,102566.56
2024-01-20T14:57:50.129Z,102573.38
2024-01-20T15:00:17.086Z,102564.91
2024-01-20T15:02:43.991Z,102569.44
2024-01-20T15:05:10.897Z,102570.53
2024-01-20T15:07:37.526Z,102573.31
2024-01-20T15:10:04.678Z,102579.75
2024-01-20T15:12:31.320Z,102578.09
2024-01-20T15:14:58.134Z,102569.00
2024-01-20T15:17:24.804Z,102583.91
2024-01-20T15:19:51.497Z,102575.31
2024-01-20T15:22:19.005Z,102578.72
2024-01-20T15:24:45.892Z,102577.34
2024-01-20T15:27:12.955Z,102574.94
2024-01-20T15:29:39.629Z,102579.31
2024-01-20T15:32:06.955Z,102572.19
2024-01-20T15:34:33.798Z,102571.53
2024-01-20T15:37:00.735Z,102580.13
2024-01-20T15:39:27.648Z,102577.69
2024-01-20T15:41:54.391Z,102583.69
2024-01-20T15:44:21.211Z,102583.00
2024-01-20T15:46:47.791Z,102579.88
2024-01-20T15:49:15.541Z,102584.56
2024-01-20T15:51:42.446Z,102570.78
2024-01-20T15:54:10.066Z,102579.22
2024-01-20T15:56:43.536Z,102578.97
2024-01-20T15:59:10.169Z,102574.25
2024-01-20T16:01:37.072Z,102566.63
2024-01-20T16:04:04.504Z,102571.31
2024-01-20T16:06:31.542Z,102573.06
2024-01-20T16:08:58.258Z,102569.94
2024-01-20T16:11:25.291Z,102575.94
2024-01-20T16:13:52.082Z,102569.94
2024-01-20T16:16:18.658Z,102570.47
2024-01-20T16:18:45.390Z,102562.84
2024-01-20T16:21:12.051Z,102562.72
2024-01-20T16:23:39.111Z,102569.28
2024-01-20T16:26:08.162Z,102567.63
2024-01-20T16:28:34.758Z,102568.09
2024-01-20T16:31:01.569Z,102574.22
2024-01-20T16:33:30.758Z,102573.41
2024-01-20T16:35:57.395Z,102570.16
2024-01-20T16:38:23.992Z,102563.88
2024-01-20T16:40:50.597Z,102565.91
2024-01-20T16:43:17.229Z,102572.22
2024-01-20T16:45:44.081Z,102564.31
2024-01-20T16:48:11.233Z,102558.47
2024-01-20T16:50:37.909Z,102566.00
2024-01-20T16:53:05.162Z,102559.69
2024-01-20T16:55:31.824Z,102563.25
2024-01-20T16:57:59.392Z,102566.00
2024-01-20T17:00:26.823Z,102552.38
2024-01-20T17:02:53.468Z,102553.59
2024-01-20T17:05:20.237Z,102555.56
2024-01-20T17:07:47.207Z,102545.03
2024-01-20T17:10:15.123Z,102554.75
2024-01-20T17:12:41.934Z,102562.63
2024-01-20T17:15:09.869Z,102559.91
2024-01-20T17:17:37.290Z,102563.75
2024-01-20T17:20:05.437Z,102561.44
2024-01-20T17:22:32.072Z,102559.81
2024-01-20T17:24:58.682Z,102551.47
2024-01-20T17:27:25.331Z,102550.66
2024-01-20T17:29:52.214Z,102549.28
2024-01-20T17:32:18.929Z,102546.56
2024-01-20T17:34:45.657Z,102553.97
2024-01-20T17:37:12.284Z,102563.50
2024-01-20T17:39:39.101Z,102561.06
2024-01-20T17:42:06.350Z,102558.75
2024-01-20T17:44:33.746Z,102562.81
2024-01-20T17:47:01.329Z,102558.47
2024-01-20T17:49:28.110Z,102556.97
2024-01-20T17:51:55.285Z,102553.56
2024-01-20T17:54:28.405Z,102556.31
2024-01-20T17:56:55.551Z,102551.78
2024-01-20T17:59:22.916Z,102555.19
2024-01-20T18:01:49.588Z,102543.59
2024-01-20T18:04:16.521Z,102542.50
2024-01-20T18:06:43.367Z,102548.47
2024-01-20T18:09:10.209Z,102550.78
2024-01-20T18:11:37.023Z,102549.56
2024-01-20T18:14:03.868Z,102548.75
2024-01-20T18:16:30.589Z,102543.56
2024-01-20T18:18:57.316Z,102546.16
2024-01-20T18:21:24.030Z,102545.34
2024-01-20T18:23:50.749Z,102542.59
2024-01-20T18:26:17.401Z,102545.69
2024-01-20T18:28:44.121Z,102550.38
2024-01-20T18:31:11.940Z,102546.78
2024-01-20T18:33:38.901Z,102547.91
2024-01-20T18:36:06.236Z,102542.06
2024-01-20T18:38:32.969Z,102548.19
2024-01-20T18:41:00.338Z,102545.19
2024-01-20T18:43:27.104Z,102547.78
2024-01-20T18:45:53.956Z,102540.78
2024-01-20T18:48:21.969Z,102542.44
2024-01-20T18:50:48.636Z,102539.19
2024-01-20T18:53:15.634Z,102535.78
2024-01-20T18:55:42.347Z,102532.25
2024-01-20T18:58:09.429Z,102532.06
2024-01-20T19:00:36.459Z,102525.94
2024-01-20T19:03:03.293Z,102528.53
2024-01-20T19:05:30.088Z,102523.19
2024-01-20T19:07:57.201Z,102514.91
2024-01-20T19:10:24.139Z,102507.00
2024-01-20T19:12:50.919Z,102509.88
2024-01-20T19:15:17.706Z,102506.63
2024-01-20T19:17:50.068Z,102502.41
2024-01-20T19:20:21.855Z,102504.03
2024-01-20T19:22:49.019Z,102502.53
2024-01-20T19:25:15.745Z,102511.25
2024-01-20T19:27:42.410Z,102497.06
2024-01-20T19:30:09.663Z,102502.13
2024-01-20T19:32:37.073Z,102504.72
2024-01-20T19:35:04.425Z,102496.13
2024-01-20T19:37:31.391Z,102496.13
2024-01-20T19:39:58.364Z,102497.34
2024-01-20T19:42:25.025Z,102491.38
2024-01-20T19:44:52.647Z,102493.00
2024-01-20T19:47:20.256Z,102494.63
2024-01-20T19:49:48.867Z,102489.44
2024-01-20T19:52:15.455Z,102485.91
2024-01-20T19:54:42.201Z,102490.13
2024-01-20T19:57:08.928Z,102492.03
2024-01-20T19:59:36.733Z,102489.81
2024-01-20T20:02:03.507Z,102491.09
2024-01-20T20:04:30.210Z,102486.03
2024-01-20T20:06:56.822Z,102480.19
2024-01-20T20:09:24.246Z,102474.19
2024-01-20T20:11:51.904Z,102478.56
2024-01-20T20:14:24.356Z,102477.59
2024-01-20T20:16:52.464Z,102472.59
2024-01-20T20:19:19.460Z,102473.53
2024-01-20T20:21:46.644Z,102458.50
2024-01-20T20:24:14.805Z,102457.84
2024-01-20T20:26:44.563Z,102450.06
2024-01-20T20:29:14.677Z,102447.88
2024-01-20T20:31:41.667Z,102454.28
2024-01-20T20:34:08.793Z,102451.06
2024-01-20T20:36:36.402Z,102453.94
2024-01-20T20:39:03.261Z,102461.69
2024-01-20T20:41:29.932Z,102457.63
2024-01-20T20:43:56.924Z,102455.03
2024-01-20T20:46:23.706Z,102459.78
2024-01-20T20:48:50.658Z,102447.78
2024-01-20T20:51:17.794Z,102441.66
2024-01-20T20:53:44.740Z,102432.94
2024-01-20T20:56:11.642Z,102424.41
2024-01-20T20:58:40.283Z,102426.06
2024-01-20T21:01:08.144Z,102427.00
2024-01-20T21:03:35.295Z,102416.34
2024-01-20T21:06:02.386Z,102424.50
2024-01-20T21:08:29.240Z,102419.16
2024-01-20T21:10:56.031Z,102417.38
2024-01-20T21:13:22.965Z,102402.63
2024-01-20T21:15:50.123Z,102402.50
2024-01-20T21:18:17.226Z,102404.94
2024-01-20T21:20:44.550Z,102394.59
2024-01-20T21:23:11.608Z,102396.22
2024-01-20T21:25:38.863Z,102392.66
2024-01-20T21:28:08.983Z,102398.81
2024-01-20T21:30:36.118Z,102397.84
2024-01-20T21:33:03.133Z,102401.09
2024-01-20T21:35:30.121Z,102381.19
2024-01-20T21:37:56.885Z,102388.44
2024-01-20T21:40:23.824Z,102382.16
2024-01-20T21:42:50.818Z,102376.81
2024-01-20T21:45:17.744Z,102373.25
2024-01-20T21:47:45.156Z,102368.06
2024-01-20T21:50:12.125Z,102368.75
2024-01-20T21:52:39.102Z,102371.19
2024-01-20T21:55:06.206Z,102363.94
2024-01-20T21:57:33.886Z,102361.97
2024-01-20T22:00:00.841Z,102358.75
2024-01-20T22:02:31.841Z,102359.53
2024-01-20T22:04:58.696Z,102353.56
2024-01-20T22:07:26.250Z,102345.63
2024-01-20T22:09:53.195Z,102338.16
2024-01-20T22:12:20.027Z,102329.44
2024-01-20T22:14:46.739Z,102326.84
2024-01-20T22:17:13.565Z,102321.97
2024-01-20T22:19:41.083Z,102327.00
2024-01-20T22:22:16.586Z,102314.03
2024-01-20T22:24:43.517Z,102316.47
2024-01-20T22:27:10.532Z,102322.63
2024-01-20T22:29:38.849Z,102327.00
2024-01-20T22:32:07.654Z,102323.13
2024-01-20T22:34:35.546Z,102330.25
2024-01-20T22:37:02.613Z,102314.72
2024-01-20T22:39:29.611Z,102326.84
2024-01-20T22:41:56.315Z,102325.22
2024-01-20T22:44:23.676Z,102314.72
2024-01-20T22:46:51.198Z,102305.78
2024-01-20T22:49:18.635Z,102298.97
2024-01-20T22:51:45.669Z,102312.13
2024-01-20T22:54:14.400Z,102312.25
2024-01-20T22:56:41.286Z,102306.94
2024-01-20T22:59:09.221Z,102299.66
2024-01-20T23:01:36.323Z,102302.25
2024-01-20T23:04:03.596Z,102301.28
2024-01-20T23:06:31.771Z,102302.91
2024-01-20T23:08:59.130Z,102300.63
2024-01-20T23:11:26.433Z,102306.59
2024-01-20T23:13:53.255Z,102302.25
2024-01-20T23:16:20.271Z,102294.19
2024-01-20T23:18:47.491Z,102304.38
2024-01-20T23:21:15.242Z,102298.88
2024-01-20T23:23:42.195Z,102294.84
2024-01-20T23:26:11.305Z,102285.25
2024-01-20T23:28:38.172Z,102275.88
2024-01-20T23:31:05.600Z,102269.22
2024-01-20T23:33:33.023Z,102267.44
2024-01-20T23:36:00.105Z,102264.84
2024-01-20T23:38:27.007Z,102262.13
2024-01-20T23:40:54.468Z,102258.56
2024-01-20T23:43:23.379Z,102253.19
2024-01-20T23:45:50.880Z,102245.44
2024-01-20T23:48:18.431Z,102234.09
2024-01-20T23:50:45.132Z,102233.94
2024-01-20T23:53:12.016Z,102226.69
2024-01-20T23:55:39.702Z,102225.22
2024-01-20T23:58:06.754Z,102219.88
